sensor_id;sensor_type;location;lat;lon;timestamp;P1;durP1;ratioP1;P2;durP2;ratioP2
67162;SDS011;54092;53.088;8.850;2023-02-19T00:01:18;15.60;;;5.97;;
67162;SDS011;54092;53.088;8.850;2023-02-19T00:03:50;15.55;;;6.90;;
67162;SDS011;54092;53.088;8.850;2023-02-19T00:06:17;14.82;;;6.05;;
67162;SDS011;54092;53.088;8.850;2023-02-19T00:08:44;14.25;;;6.43;;
67162;SDS011;54092;53.088;8.850;2023-02-19T00:11:11;13.98;;;6.63;;
67162;SDS011;54092;53.088;8.850;2023-02-19T00:13:40;17.27;;;6.25;;
67162;SDS011;54092;53.088;8.850;2023-02-19T00:16:14;18.13;;;6.63;;
67162;SDS011;54092;53.088;8.850;2023-02-19T00:18:45;16.20;;;6.50;;
67162;SDS011;54092;53.088;8.850;2023-02-19T00:21:11;15.45;;;6.57;;
67162;SDS011;54092;53.088;8.850;2023-02-19T00:23:37;18.23;;;6.95;;
67162;SDS011;54092;53.088;8.850;2023-02-19T00:26:04;15.35;;;6.28;;
67162;SDS011;54092;53.088;8.850;2023-02-19T00:28:31;17.40;;;7.10;;
67162;SDS011;54092;53.088;8.850;2023-02-19T00:31:07;14.15;;;5.85;;
67162;SDS011;54092;53.088;8.850;2023-02-19T00:33:36;15.15;;;6.00;;
67162;SDS011;54092;53.088;8.850;2023-02-19T00:36:02;15.75;;;5.95;;
67162;SDS011;54092;53.088;8.850;2023-02-19T00:38:29;12.27;;;5.63;;
67162;SDS011;54092;53.088;8.850;2023-02-19T00:40:57;14.48;;;5.90;;
67162;SDS011;54092;53.088;8.850;2023-02-19T00:43:22;14.63;;;5.78;;
67162;SDS011;54092;53.088;8.850;2023-02-19T00:45:48;13.70;;;5.40;;
67162;SDS011;54092;53.088;8.850;2023-02-19T00:48:14;15.27;;;5.85;;
67162;SDS011;54092;53.088;8.850;2023-02-19T00:50:39;12.73;;;5.15;;
67162;SDS011;54092;53.088;8.850;2023-02-19T00:53:05;15.75;;;5.53;;
67162;SDS011;54092;53.088;8.850;2023-02-19T00:55:30;13.18;;;5.63;;
67162;SDS011;54092;53.088;8.850;2023-02-19T00:57:56;15.65;;;6.20;;
67162;SDS011;54092;53.088;8.850;2023-02-19T01:00:21;16.75;;;6.68;;
67162;SDS011;54092;53.088;8.850;2023-02-19T01:02:47;14.10;;;5.97;;
67162;SDS011;54092;53.088;8.850;2023-02-19T01:05:12;15.75;;;6.07;;
67162;SDS011;54092;53.088;8.850;2023-02-19T01:07:38;15.38;;;6.32;;
67162;SDS011;54092;53.088;8.850;2023-02-19T01:10:04;16.50;;;6.55;;
67162;SDS011;54092;53.088;8.850;2023-02-19T01:12:30;14.73;;;5.40;;
67162;SDS011;54092;53.088;8.850;2023-02-19T01:14:56;14.68;;;5.25;;
67162;SDS011;54092;53.088;8.850;2023-02-19T01:17:22;11.85;;;4.82;;
67162;SDS011;54092;53.088;8.850;2023-02-19T01:19:48;9.80;;;4.10;;
67162;SDS011;54092;53.088;8.850;2023-02-19T01:22:13;10.48;;;4.45;;
67162;SDS011;54092;53.088;8.850;2023-02-19T01:24:39;9.13;;;3.50;;
67162;SDS011;54092;53.088;8.850;2023-02-19T01:27:04;10.82;;;3.80;;
67162;SDS011;54092;53.088;8.850;2023-02-19T01:29:30;11.68;;;4.18;;
67162;SDS011;54092;53.088;8.850;2023-02-19T01:31:56;9.40;;;3.38;;
67162;SDS011;54092;53.088;8.850;2023-02-19T01:34:21;12.65;;;3.75;;
67162;SDS011;54092;53.088;8.850;2023-02-19T01:36:47;9.57;;;3.00;;
67162;SDS011;54092;53.088;8.850;2023-02-19T01:39:12;8.30;;;3.15;;
67162;SDS011;54092;53.088;8.850;2023-02-19T01:41:38;7.88;;;3.22;;
67162;SDS011;54092;53.088;8.850;2023-02-19T01:44:06;8.73;;;3.20;;
67162;SDS011;54092;53.088;8.850;2023-02-19T01:46:51;7.28;;;2.75;;
67162;SDS011;54092;53.088;8.850;2023-02-19T01:49:26;9.35;;;3.20;;
67162;SDS011;54092;53.088;8.850;2023-02-19T01:51:55;7.68;;;3.17;;
67162;SDS011;54092;53.088;8.850;2023-02-19T01:54:27;8.98;;;2.70;;
67162;SDS011;54092;53.088;8.850;2023-02-19T01:56:56;9.45;;;3.30;;
67162;SDS011;54092;53.088;8.850;2023-02-19T01:59:22;8.48;;;3.05;;
67162;SDS011;54092;53.088;8.850;2023-02-19T02:01:48;9.02;;;3.25;;
67162;SDS011;54092;53.088;8.850;2023-02-19T02:04:14;10.07;;;3.17;;
67162;SDS011;54092;53.088;8.850;2023-02-19T02:06:48;8.02;;;3.33;;
67162;SDS011;54092;53.088;8.850;2023-02-19T02:09:17;9.68;;;3.22;;
67162;SDS011;54092;53.088;8.850;2023-02-19T02:12:03;8.50;;;3.55;;
67162;SDS011;54092;53.088;8.850;2023-02-19T02:14:29;11.68;;;3.70;;
67162;SDS011;54092;53.088;8.850;2023-02-19T02:22:43;9.73;;;3.97;;
67162;SDS011;54092;53.088;8.850;2023-02-19T02:25:51;8.60;;;3.53;;
67162;SDS011;54092;53.088;8.850;2023-02-19T02:28:44;10.98;;;3.70;;
67162;SDS011;54092;53.088;8.850;2023-02-19T02:31:34;10.13;;;3.92;;
67162;SDS011;54092;53.088;8.850;2023-02-19T02:34:21;10.77;;;3.80;;
67162;SDS011;54092;53.088;8.850;2023-02-19T02:36:52;10.18;;;3.78;;
67162;SDS011;54092;53.088;8.850;2023-02-19T02:39:21;9.90;;;3.70;;
67162;SDS011;54092;53.088;8.850;2023-02-19T02:41:49;11.15;;;4.38;;
67162;SDS011;54092;53.088;8.850;2023-02-19T02:44:39;10.73;;;3.95;;
67162;SDS011;54092;53.088;8.850;2023-02-19T02:47:06;11.57;;;4.78;;
67162;SDS011;54092;53.088;8.850;2023-02-19T02:49:53;12.77;;;3.47;;
67162;SDS011;54092;53.088;8.850;2023-02-19T02:52:30;8.90;;;3.47;;
67162;SDS011;54092;53.088;8.850;2023-02-19T02:55:19;8.68;;;3.17;;
67162;SDS011;54092;53.088;8.850;2023-02-19T02:57:46;7.82;;;3.47;;
67162;SDS011;54092;53.088;8.850;2023-02-19T03:00:12;9.75;;;3.25;;
67162;SDS011;54092;53.088;8.850;2023-02-19T03:02:38;8.35;;;3.20;;
67162;SDS011;54092;53.088;8.850;2023-02-19T03:05:09;8.95;;;2.90;;
67162;SDS011;54092;53.088;8.850;2023-02-19T03:10:38;8.20;;;3.85;;
67162;SDS011;54092;53.088;8.850;2023-02-19T03:13:15;8.25;;;2.75;;
67162;SDS011;54092;53.088;8.850;2023-02-19T03:16:13;8.02;;;2.50;;
67162;SDS011;54092;53.088;8.850;2023-02-19T03:19:27;10.88;;;3.10;;
67162;SDS011;54092;53.088;8.850;2023-02-19T03:24:34;7.88;;;2.80;;
67162;SDS011;54092;53.088;8.850;2023-02-19T03:27:21;10.05;;;2.63;;
67162;SDS011;54092;53.088;8.850;2023-02-19T03:29:51;8.65;;;2.83;;
67162;SDS011;54092;53.088;8.850;2023-02-19T03:32:22;8.25;;;2.53;;
67162;SDS011;54092;53.088;8.850;2023-02-19T03:34:54;10.90;;;2.63;;
67162;SDS011;54092;53.088;8.850;2023-02-19T03:37:25;7.28;;;2.03;;
67162;SDS011;54092;53.088;8.850;2023-02-19T03:39:54;5.07;;;2.05;;
67162;SDS011;54092;53.088;8.850;2023-02-19T03:42:26;5.25;;;1.90;;
67162;SDS011;54092;53.088;8.850;2023-02-19T03:54:09;4.38;;;1.90;;
67162;SDS011;54092;53.088;8.850;2023-02-19T03:57:06;5.95;;;2.58;;
67162;SDS011;54092;53.088;8.850;2023-02-19T04:00:03;6.90;;;2.10;;
67162;SDS011;54092;53.088;8.850;2023-02-19T04:02:37;6.28;;;2.30;;
67162;SDS011;54092;53.088;8.850;2023-02-19T04:05:14;9.68;;;2.10;;
67162;SDS011;54092;53.088;8.850;2023-02-19T04:07:44;5.40;;;2.30;;
67162;SDS011;54092;53.088;8.850;2023-02-19T04:10:12;6.90;;;1.77;;
67162;SDS011;54092;53.088;8.850;2023-02-19T04:12:40;8.05;;;2.33;;
67162;SDS011;54092;53.088;8.850;2023-02-19T04:15:11;7.45;;;2.10;;
67162;SDS011;54092;53.088;8.850;2023-02-19T04:17:44;6.55;;;1.77;;
67162;SDS011;54092;53.088;8.850;2023-02-19T04:20:13;10.85;;;2.47;;
67162;SDS011;54092;53.088;8.850;2023-02-19T04:22:40;8.27;;;2.85;;
67162;SDS011;54092;53.088;8.850;2023-02-19T04:25:07;6.88;;;2.75;;
67162;SDS011;54092;53.088;8.850;2023-02-19T04:27:38;6.13;;;2.10;;
67162;SDS011;54092;53.088;8.850;2023-02-19T04:30:05;9.45;;;3.33;;
67162;SDS011;54092;53.088;8.850;2023-02-19T04:32:32;4.45;;;2.03;;
67162;SDS011;54092;53.088;8.850;2023-02-19T04:34:57;5.60;;;2.35;;
67162;SDS011;54092;53.088;8.850;2023-02-19T04:37:23;4.53;;;1.83;;
67162;SDS011;54092;53.088;8.850;2023-02-19T04:39:48;7.65;;;2.40;;
67162;SDS011;54092;53.088;8.850;2023-02-19T04:42:14;7.10;;;2.20;;
67162;SDS011;54092;53.088;8.850;2023-02-19T04:44:39;7.95;;;2.20;;
67162;SDS011;54092;53.088;8.850;2023-02-19T04:47:05;6.22;;;2.13;;
67162;SDS011;54092;53.088;8.850;2023-02-19T04:49:30;8.10;;;2.30;;
67162;SDS011;54092;53.088;8.850;2023-02-19T04:51:56;5.32;;;1.67;;
67162;SDS011;54092;53.088;8.850;2023-02-19T04:54:21;11.15;;;2.60;;
67162;SDS011;54092;53.088;8.850;2023-02-19T04:56:47;5.78;;;2.33;;
67162;SDS011;54092;53.088;8.850;2023-02-19T04:59:14;6.97;;;2.35;;
67162;SDS011;54092;53.088;8.850;2023-02-19T05:01:40;4.70;;;1.92;;
67162;SDS011;54092;53.088;8.850;2023-02-19T05:04:05;9.13;;;2.20;;
67162;SDS011;54092;53.088;8.850;2023-02-19T05:06:31;9.80;;;2.22;;
67162;SDS011;54092;53.088;8.850;2023-02-19T05:08:56;8.15;;;2.42;;
67162;SDS011;54092;53.088;8.850;2023-02-19T05:11:22;7.60;;;2.40;;
67162;SDS011;54092;53.088;8.850;2023-02-19T05:13:47;6.45;;;2.70;;
67162;SDS011;54092;53.088;8.850;2023-02-19T05:16:14;5.50;;;1.83;;
67162;SDS011;54092;53.088;8.850;2023-02-19T05:18:40;5.90;;;2.47;;
67162;SDS011;54092;53.088;8.850;2023-02-19T05:21:07;9.65;;;2.30;;
67162;SDS011;54092;53.088;8.850;2023-02-19T05:23:33;7.00;;;2.10;;
67162;SDS011;54092;53.088;8.850;2023-02-19T05:25:58;6.68;;;2.22;;
67162;SDS011;54092;53.088;8.850;2023-02-19T05:28:32;6.95;;;1.85;;
67162;SDS011;54092;53.088;8.850;2023-02-19T05:31:02;5.80;;;2.30;;
67162;SDS011;54092;53.088;8.850;2023-02-19T05:33:30;9.68;;;2.60;;
67162;SDS011;54092;53.088;8.850;2023-02-19T05:35:55;7.53;;;2.30;;
67162;SDS011;54092;53.088;8.850;2023-02-19T05:38:21;5.95;;;2.00;;
67162;SDS011;54092;53.088;8.850;2023-02-19T05:40:48;7.65;;;2.08;;
67162;SDS011;54092;53.088;8.850;2023-02-19T05:43:14;6.90;;;1.95;;
67162;SDS011;54092;53.088;8.850;2023-02-19T05:45:40;8.30;;;2.10;;
67162;SDS011;54092;53.088;8.850;2023-02-19T05:48:06;5.95;;;1.85;;
67162;SDS011;54092;53.088;8.850;2023-02-19T05:50:32;5.60;;;1.77;;
67162;SDS011;54092;53.088;8.850;2023-02-19T05:52:59;5.65;;;1.70;;
67162;SDS011;54092;53.088;8.850;2023-02-19T05:55:26;4.18;;;1.98;;
67162;SDS011;54092;53.088;8.850;2023-02-19T05:57:52;5.72;;;1.65;;
67162;SDS011;54092;53.088;8.850;2023-02-19T06:00:18;4.80;;;1.60;;
67162;SDS011;54092;53.088;8.850;2023-02-19T06:02:44;6.57;;;2.05;;
67162;SDS011;54092;53.088;8.850;2023-02-19T06:05:10;3.33;;;1.58;;
67162;SDS011;54092;53.088;8.850;2023-02-19T06:07:36;7.03;;;2.30;;
67162;SDS011;54092;53.088;8.850;2023-02-19T06:10:05;6.93;;;2.20;;
67162;SDS011;54092;53.088;8.850;2023-02-19T06:12:31;7.07;;;2.00;;
67162;SDS011;54092;53.088;8.850;2023-02-19T06:14:57;3.08;;;1.50;;
67162;SDS011;54092;53.088;8.850;2023-02-19T06:17:22;6.22;;;1.70;;
67162;SDS011;54092;53.088;8.850;2023-02-19T06:19:48;4.78;;;1.90;;
67162;SDS011;54092;53.088;8.850;2023-02-19T06:22:14;4.35;;;2.10;;
67162;SDS011;54092;53.088;8.850;2023-02-19T06:24:40;4.97;;;1.90;;
67162;SDS011;54092;53.088;8.850;2023-02-19T06:27:06;5.75;;;2.17;;
67162;SDS011;54092;53.088;8.850;2023-02-19T06:29:32;7.30;;;2.15;;
67162;SDS011;54092;53.088;8.850;2023-02-19T06:31:58;6.40;;;2.50;;
67162;SDS011;54092;53.088;8.850;2023-02-19T06:34:24;6.05;;;2.05;;
67162;SDS011;54092;53.088;8.850;2023-02-19T06:36:49;4.90;;;2.53;;
67162;SDS011;54092;53.088;8.850;2023-02-19T06:39:15;5.28;;;2.55;;
67162;SDS011;54092;53.088;8.850;2023-02-19T06:41:41;5.35;;;1.70;;
67162;SDS011;54092;53.088;8.850;2023-02-19T06:44:06;6.35;;;2.72;;
67162;SDS011;54092;53.088;8.850;2023-02-19T06:46:32;7.18;;;2.33;;
67162;SDS011;54092;53.088;8.850;2023-02-19T06:48:58;8.05;;;2.28;;
67162;SDS011;54092;53.088;8.850;2023-02-19T06:51:23;7.38;;;2.30;;
67162;SDS011;54092;53.088;8.850;2023-02-19T06:53:51;8.57;;;2.38;;
67162;SDS011;54092;53.088;8.850;2023-02-19T06:58:53;8.25;;;2.75;;
67162;SDS011;54092;53.088;8.850;2023-02-19T07:01:20;7.55;;;2.53;;
67162;SDS011;54092;53.088;8.850;2023-02-19T07:03:47;10.60;;;2.45;;
67162;SDS011;54092;53.088;8.850;2023-02-19T07:06:13;6.72;;;2.50;;
67162;SDS011;54092;53.088;8.850;2023-02-19T07:08:38;6.30;;;2.50;;
67162;SDS011;54092;53.088;8.850;2023-02-19T07:11:04;7.57;;;2.33;;
67162;SDS011;54092;53.088;8.850;2023-02-19T07:13:30;8.15;;;3.05;;
67162;SDS011;54092;53.088;8.850;2023-02-19T07:16:02;8.48;;;2.70;;
67162;SDS011;54092;53.088;8.850;2023-02-19T07:18:31;12.45;;;3.00;;
67162;SDS011;54092;53.088;8.850;2023-02-19T07:21:01;5.68;;;2.60;;
67162;SDS011;54092;53.088;8.850;2023-02-19T07:23:34;8.93;;;2.83;;
67162;SDS011;54092;53.088;8.850;2023-02-19T07:26:00;7.28;;;2.65;;
67162;SDS011;54092;53.088;8.850;2023-02-19T07:28:26;5.57;;;2.60;;
67162;SDS011;54092;53.088;8.850;2023-02-19T07:30:52;8.40;;;2.90;;
67162;SDS011;54092;53.088;8.850;2023-02-19T07:33:17;7.55;;;2.97;;
67162;SDS011;54092;53.088;8.850;2023-02-19T07:35:44;8.20;;;2.97;;
67162;SDS011;54092;53.088;8.850;2023-02-19T07:38:10;8.63;;;3.30;;
67162;SDS011;54092;53.088;8.850;2023-02-19T07:40:36;11.48;;;3.53;;
67162;SDS011;54092;53.088;8.850;2023-02-19T07:43:01;10.18;;;3.20;;
67162;SDS011;54092;53.088;8.850;2023-02-19T07:45:27;8.55;;;3.33;;
67162;SDS011;54092;53.088;8.850;2023-02-19T07:47:52;8.75;;;2.70;;
67162;SDS011;54092;53.088;8.850;2023-02-19T07:50:18;6.43;;;2.90;;
67162;SDS011;54092;53.088;8.850;2023-02-19T07:52:44;7.47;;;2.67;;
67162;SDS011;54092;53.088;8.850;2023-02-19T07:55:09;5.63;;;2.72;;
67162;SDS011;54092;53.088;8.850;2023-02-19T07:57:34;7.88;;;2.13;;
67162;SDS011;54092;53.088;8.850;2023-02-19T08:00:00;9.45;;;2.80;;
67162;SDS011;54092;53.088;8.850;2023-02-19T08:02:26;7.18;;;2.75;;
67162;SDS011;54092;53.088;8.850;2023-02-19T08:05:10;8.82;;;2.70;;
67162;SDS011;54092;53.088;8.850;2023-02-19T08:07:37;8.60;;;2.50;;
67162;SDS011;54092;53.088;8.850;2023-02-19T08:10:03;9.35;;;2.78;;
67162;SDS011;54092;53.088;8.850;2023-02-19T08:12:57;11.00;;;3.45;;
67162;SDS011;54092;53.088;8.850;2023-02-19T08:15:42;6.60;;;2.40;;
67162;SDS011;54092;53.088;8.850;2023-02-19T08:18:11;5.80;;;2.53;;
67162;SDS011;54092;53.088;8.850;2023-02-19T08:20:38;9.40;;;2.83;;
67162;SDS011;54092;53.088;8.850;2023-02-19T08:23:04;9.00;;;2.30;;
67162;SDS011;54092;53.088;8.850;2023-02-19T08:25:30;4.63;;;2.15;;
67162;SDS011;54092;53.088;8.850;2023-02-19T08:27:56;8.02;;;2.67;;
67162;SDS011;54092;53.088;8.850;2023-02-19T08:30:21;8.15;;;2.90;;
67162;SDS011;54092;53.088;8.850;2023-02-19T08:32:47;8.93;;;3.30;;
67162;SDS011;54092;53.088;8.850;2023-02-19T08:35:12;7.55;;;2.80;;
67162;SDS011;54092;53.088;8.850;2023-02-19T08:37:38;8.38;;;3.13;;
67162;SDS011;54092;53.088;8.850;2023-02-19T08:40:03;11.07;;;3.38;;
67162;SDS011;54092;53.088;8.850;2023-02-19T08:42:29;8.10;;;3.58;;
67162;SDS011;54092;53.088;8.850;2023-02-19T08:44:55;11.82;;;4.07;;
67162;SDS011;54092;53.088;8.850;2023-02-19T08:47:20;7.50;;;3.10;;
67162;SDS011;54092;53.088;8.850;2023-02-19T08:49:46;6.82;;;2.72;;
67162;SDS011;54092;53.088;8.850;2023-02-19T08:52:11;8.20;;;2.92;;
67162;SDS011;54092;53.088;8.850;2023-02-19T08:54:37;7.05;;;2.78;;
67162;SDS011;54092;53.088;8.850;2023-02-19T08:57:02;7.22;;;2.80;;
67162;SDS011;54092;53.088;8.850;2023-02-19T08:59:29;9.90;;;3.50;;
67162;SDS011;54092;53.088;8.850;2023-02-19T09:01:55;6.53;;;2.90;;
67162;SDS011;54092;53.088;8.850;2023-02-19T09:04:22;11.55;;;3.38;;
67162;SDS011;54092;53.088;8.850;2023-02-19T09:06:48;11.43;;;3.78;;
67162;SDS011;54092;53.088;8.850;2023-02-19T09:09:13;7.32;;;2.75;;
67162;SDS011;54092;53.088;8.850;2023-02-19T09:11:39;9.15;;;2.90;;
67162;SDS011;54092;53.088;8.850;2023-02-19T09:14:04;6.97;;;2.70;;
67162;SDS011;54092;53.088;8.850;2023-02-19T09:16:31;7.25;;;2.88;;
67162;SDS011;54092;53.088;8.850;2023-02-19T09:18:57;6.15;;;2.92;;
67162;SDS011;54092;53.088;8.850;2023-02-19T09:21:23;10.15;;;3.20;;
67162;SDS011;54092;53.088;8.850;2023-02-19T09:23:48;7.32;;;2.63;;
67162;SDS011;54092;53.088;8.850;2023-02-19T09:26:14;5.97;;;2.20;;
67162;SDS011;54092;53.088;8.850;2023-02-19T09:28:40;6.68;;;2.70;;
67162;SDS011;54092;53.088;8.850;2023-02-19T09:31:08;7.82;;;3.40;;
67162;SDS011;54092;53.088;8.850;2023-02-19T09:33:35;6.53;;;2.20;;
67162;SDS011;54092;53.088;8.850;2023-02-19T09:36:01;7.03;;;2.25;;
67162;SDS011;54092;53.088;8.850;2023-02-19T09:38:27;5.78;;;2.58;;
67162;SDS011;54092;53.088;8.850;2023-02-19T09:40:55;8.32;;;2.60;;
67162;SDS011;54092;53.088;8.850;2023-02-19T09:43:22;5.35;;;2.20;;
67162;SDS011;54092;53.088;8.850;2023-02-19T09:45:50;9.57;;;2.30;;
67162;SDS011;54092;53.088;8.850;2023-02-19T09:48:26;6.68;;;2.00;;
67162;SDS011;54092;53.088;8.850;2023-02-19T09:50:51;7.35;;;2.00;;
67162;SDS011;54092;53.088;8.850;2023-02-19T09:53:21;3.60;;;1.50;;
67162;SDS011;54092;53.088;8.850;2023-02-19T09:55:50;5.05;;;1.85;;
67162;SDS011;54092;53.088;8.850;2023-02-19T10:00:57;3.20;;;1.70;;
67162;SDS011;54092;53.088;8.850;2023-02-19T10:03:33;5.40;;;1.73;;
67162;SDS011;54092;53.088;8.850;2023-02-19T10:06:07;7.88;;;2.28;;
67162;SDS011;54092;53.088;8.850;2023-02-19T10:08:42;8.75;;;1.98;;
67162;SDS011;54092;53.088;8.850;2023-02-19T10:11:10;5.03;;;1.88;;
67162;SDS011;54092;53.088;8.850;2023-02-19T10:13:40;9.57;;;1.95;;
67162;SDS011;54092;53.088;8.850;2023-02-19T10:16:10;6.65;;;1.50;;
67162;SDS011;54092;53.088;8.850;2023-02-19T10:18:41;2.15;;;1.10;;
67162;SDS011;54092;53.088;8.850;2023-02-19T10:21:14;5.38;;;1.70;;
67162;SDS011;54092;53.088;8.850;2023-02-19T10:23:43;4.30;;;1.50;;
67162;SDS011;54092;53.088;8.850;2023-02-19T10:26:11;4.25;;;1.70;;
67162;SDS011;54092;53.088;8.850;2023-02-19T10:28:36;4.05;;;1.83;;
67162;SDS011;54092;53.088;8.850;2023-02-19T10:31:03;5.93;;;2.17;;
67162;SDS011;54092;53.088;8.850;2023-02-19T10:33:49;7.30;;;1.88;;
67162;SDS011;54092;53.088;8.850;2023-02-19T10:36:21;3.88;;;1.85;;
67162;SDS011;54092;53.088;8.850;2023-02-19T10:38:50;3.22;;;1.50;;
67162;SDS011;54092;53.088;8.850;2023-02-19T10:41:20;3.58;;;1.50;;
67162;SDS011;54092;53.088;8.850;2023-02-19T10:43:53;5.35;;;1.45;;
67162;SDS011;54092;53.088;8.850;2023-02-19T10:46:41;5.72;;;1.45;;
67162;SDS011;54092;53.088;8.850;2023-02-19T10:49:21;7.72;;;2.17;;
67162;SDS011;54092;53.088;8.850;2023-02-19T10:51:54;4.95;;;1.85;;
67162;SDS011;54092;53.088;8.850;2023-02-19T10:54:24;4.77;;;1.90;;
67162;SDS011;54092;53.088;8.850;2023-02-19T10:56:53;2.10;;;1.40;;
67162;SDS011;54092;53.088;8.850;2023-02-19T10:59:25;3.63;;;1.50;;
67162;SDS011;54092;53.088;8.850;2023-02-19T11:02:02;4.88;;;1.40;;
67162;SDS011;54092;53.088;8.850;2023-02-19T11:04:39;5.20;;;1.58;;
67162;SDS011;54092;53.088;8.850;2023-02-19T11:07:15;7.28;;;1.42;;
67162;SDS011;54092;53.088;8.850;2023-02-19T11:09:45;6.55;;;1.65;;
67162;SDS011;54092;53.088;8.850;2023-02-19T11:12:13;9.25;;;1.90;;
67162;SDS011;54092;53.088;8.850;2023-02-19T11:14:49;7.28;;;2.20;;
67162;SDS011;54092;53.088;8.850;2023-02-19T11:17:19;5.20;;;1.85;;
67162;SDS011;54092;53.088;8.850;2023-02-19T11:19:52;7.72;;;2.03;;
67162;SDS011;54092;53.088;8.850;2023-02-19T11:24:57;5.95;;;1.55;;
67162;SDS011;54092;53.088;8.850;2023-02-19T11:27:27;4.95;;;1.50;;
67162;SDS011;54092;53.088;8.850;2023-02-19T11:29:53;6.15;;;1.60;;
67162;SDS011;54092;53.088;8.850;2023-02-19T11:34:44;7.05;;;1.75;;
67162;SDS011;54092;53.088;8.850;2023-02-19T11:37:11;6.13;;;2.53;;
67162;SDS011;54092;53.088;8.850;2023-02-19T11:39:41;3.80;;;1.60;;
67162;SDS011;54092;53.088;8.850;2023-02-19T11:44:49;5.15;;;1.40;;
67162;SDS011;54092;53.088;8.850;2023-02-19T11:52:45;4.80;;;1.58;;
67162;SDS011;54092;53.088;8.850;2023-02-19T12:12:28;3.75;;;1.02;;
67162;SDS011;54092;53.088;8.850;2023-02-19T12:15:30;4.90;;;1.25;;
67162;SDS011;54092;53.088;8.850;2023-02-19T12:18:20;4.75;;;1.40;;
67162;SDS011;54092;53.088;8.850;2023-02-19T12:32:20;2.88;;;1.20;;
67162;SDS011;54092;53.088;8.850;2023-02-19T12:35:10;3.17;;;1.27;;
67162;SDS011;54092;53.088;8.850;2023-02-19T12:37:48;2.40;;;1.05;;
67162;SDS011;54092;53.088;8.850;2023-02-19T12:40:34;3.72;;;1.45;;
67162;SDS011;54092;53.088;8.850;2023-02-19T12:43:11;5.15;;;1.30;;
67162;SDS011;54092;53.088;8.850;2023-02-19T12:45:53;2.78;;;1.00;;
67162;SDS011;54092;53.088;8.850;2023-02-19T12:48:28;4.38;;;1.30;;
67162;SDS011;54092;53.088;8.850;2023-02-19T12:51:03;1.80;;;0.93;;
67162;SDS011;54092;53.088;8.850;2023-02-19T12:54:06;7.60;;;1.38;;
67162;SDS011;54092;53.088;8.850;2023-02-19T12:56:53;3.33;;;1.15;;
67162;SDS011;54092;53.088;8.850;2023-02-19T12:59:28;3.35;;;1.02;;
67162;SDS011;54092;53.088;8.850;2023-02-19T13:02:04;4.32;;;1.30;;
67162;SDS011;54092;53.088;8.850;2023-02-19T13:04:55;3.45;;;1.00;;
67162;SDS011;54092;53.088;8.850;2023-02-19T13:07:49;4.00;;;1.33;;
67162;SDS011;54092;53.088;8.850;2023-02-19T13:10:26;2.85;;;1.10;;
67162;SDS011;54092;53.088;8.850;2023-02-19T13:13:03;3.40;;;1.08;;
67162;SDS011;54092;53.088;8.850;2023-02-19T13:15:35;2.13;;;0.88;;
67162;SDS011;54092;53.088;8.850;2023-02-19T13:18:08;5.88;;;1.30;;
67162;SDS011;54092;53.088;8.850;2023-02-19T13:20:40;3.20;;;0.90;;
67162;SDS011;54092;53.088;8.850;2023-02-19T13:26:28;3.90;;;0.65;;
67162;SDS011;54092;53.088;8.850;2023-02-19T13:29:20;3.90;;;1.20;;
67162;SDS011;54092;53.088;8.850;2023-02-19T13:32:30;6.75;;;1.67;;
67162;SDS011;54092;53.088;8.850;2023-02-19T13:35:20;4.30;;;1.60;;
67162;SDS011;54092;53.088;8.850;2023-02-19T13:38:07;5.28;;;1.40;;
67162;SDS011;54092;53.088;8.850;2023-02-19T13:40:36;6.07;;;2.08;;
67162;SDS011;54092;53.088;8.850;2023-02-19T13:43:06;10.93;;;1.52;;
67162;SDS011;54092;53.088;8.850;2023-02-19T13:45:47;4.55;;;1.30;;
67162;SDS011;54092;53.088;8.850;2023-02-19T13:48:32;3.03;;;1.15;;
67162;SDS011;54092;53.088;8.850;2023-02-19T14:04:22;3.75;;;0.98;;
67162;SDS011;54092;53.088;8.850;2023-02-19T14:14:46;9.25;;;2.20;;
67162;SDS011;54092;53.088;8.850;2023-02-19T14:19:58;4.43;;;1.05;;
67162;SDS011;54092;53.088;8.850;2023-02-19T14:25:23;5.63;;;1.50;;
67162;SDS011;54092;53.088;8.850;2023-02-19T14:30:44;5.18;;;1.42;;
67162;SDS011;54092;53.088;8.850;2023-02-19T14:33:14;8.10;;;2.45;;
67162;SDS011;54092;53.088;8.850;2023-02-19T14:35:43;6.07;;;2.90;;
67162;SDS011;54092;53.088;8.850;2023-02-19T14:38:13;6.63;;;1.70;;
67162;SDS011;54092;53.088;8.850;2023-02-19T14:40:43;3.85;;;2.17;;
67162;SDS011;54092;53.088;8.850;2023-02-19T14:43:11;13.30;;;5.75;;
67162;SDS011;54092;53.088;8.850;2023-02-19T14:45:41;6.88;;;1.33;;
67162;SDS011;54092;53.088;8.850;2023-02-19T14:48:37;5.97;;;1.50;;
67162;SDS011;54092;53.088;8.850;2023-02-19T14:51:09;3.80;;;1.30;;
67162;SDS011;54092;53.088;8.850;2023-02-19T14:53:56;1.65;;;1.05;;
67162;SDS011;54092;53.088;8.850;2023-02-19T14:56:26;9.43;;;5.25;;
67162;SDS011;54092;53.088;8.850;2023-02-19T15:01:56;9.02;;;1.33;;
67162;SDS011;54092;53.088;8.850;2023-02-19T15:04:29;5.68;;;2.67;;
67162;SDS011;54092;53.088;8.850;2023-02-19T15:07:01;2.63;;;1.25;;
67162;SDS011;54092;53.088;8.850;2023-02-19T15:09:32;4.90;;;1.23;;
67162;SDS011;54092;53.088;8.850;2023-02-19T15:12:05;3.55;;;1.20;;
67162;SDS011;54092;53.088;8.850;2023-02-19T15:14:31;4.55;;;1.30;;
67162;SDS011;54092;53.088;8.850;2023-02-19T15:17:01;3.70;;;1.30;;
67162;SDS011;54092;53.088;8.850;2023-02-19T15:19:30;3.20;;;1.38;;
67162;SDS011;54092;53.088;8.850;2023-02-19T15:21:59;5.00;;;1.40;;
67162;SDS011;54092;53.088;8.850;2023-02-19T15:24:25;9.50;;;3.20;;
67162;SDS011;54092;53.088;8.850;2023-02-19T15:26:52;9.40;;;3.92;;
67162;SDS011;54092;53.088;8.850;2023-02-19T15:29:19;5.75;;;1.80;;
67162;SDS011;54092;53.088;8.850;2023-02-19T15:31:48;3.40;;;1.00;;
67162;SDS011;54092;53.088;8.850;2023-02-19T15:34:18;8.77;;;4.20;;
67162;SDS011;54092;53.088;8.850;2023-02-19T15:36:46;12.13;;;4.22;;
67162;SDS011;54092;53.088;8.850;2023-02-19T15:39:24;8.18;;;4.00;;
67162;SDS011;54092;53.088;8.850;2023-02-19T15:41:57;4.80;;;2.13;;
67162;SDS011;54092;53.088;8.850;2023-02-19T15:44:28;4.40;;;1.40;;
67162;SDS011;54092;53.088;8.850;2023-02-19T15:50:10;7.22;;;2.20;;
67162;SDS011;54092;53.088;8.850;2023-02-19T15:55:33;4.82;;;1.67;;
67162;SDS011;54092;53.088;8.850;2023-02-19T16:00:56;4.85;;;2.38;;
67162;SDS011;54092;53.088;8.850;2023-02-19T16:03:37;3.70;;;1.67;;
67162;SDS011;54092;53.088;8.850;2023-02-19T16:06:13;6.70;;;3.20;;
67162;SDS011;54092;53.088;8.850;2023-02-19T16:08:43;7.50;;;2.58;;
67162;SDS011;54092;53.088;8.850;2023-02-19T16:13:48;5.60;;;2.75;;
67162;SDS011;54092;53.088;8.850;2023-02-19T16:16:17;3.50;;;1.55;;
67162;SDS011;54092;53.088;8.850;2023-02-19T16:18:53;7.30;;;2.38;;
67162;SDS011;54092;53.088;8.850;2023-02-19T16:21:21;4.72;;;1.60;;
67162;SDS011;54092;53.088;8.850;2023-02-19T16:23:48;3.65;;;1.58;;
67162;SDS011;54092;53.088;8.850;2023-02-19T16:26:18;7.68;;;2.58;;
67162;SDS011;54092;53.088;8.850;2023-02-19T16:28:45;3.08;;;1.55;;
67162;SDS011;54092;53.088;8.850;2023-02-19T16:31:15;2.90;;;1.20;;
67162;SDS011;54092;53.088;8.850;2023-02-19T16:33:45;3.53;;;1.30;;
67162;SDS011;54092;53.088;8.850;2023-02-19T16:41:25;6.78;;;1.83;;
67162;SDS011;54092;53.088;8.850;2023-02-19T16:43:51;6.55;;;1.80;;
67162;SDS011;54092;53.088;8.850;2023-02-19T16:46:16;18.95;;;5.45;;
67162;SDS011;54092;53.088;8.850;2023-02-19T16:48:42;5.75;;;1.75;;
67162;SDS011;54092;53.088;8.850;2023-02-19T16:51:07;9.20;;;3.53;;
67162;SDS011;54092;53.088;8.850;2023-02-19T16:53:42;2.00;;;1.40;;
67162;SDS011;54092;53.088;8.850;2023-02-19T16:56:11;39.28;;;14.48;;
67162;SDS011;54092;53.088;8.850;2023-02-19T16:58:40;9.07;;;4.30;;
67162;SDS011;54092;53.088;8.850;2023-02-19T17:01:05;14.15;;;10.02;;
67162;SDS011;54092;53.088;8.850;2023-02-19T17:03:31;5.75;;;1.70;;
67162;SDS011;54092;53.088;8.850;2023-02-19T17:05:56;5.07;;;1.70;;